createdAt,value
2019-03-10T04:02:04.650Z,5.72
2019-03-10T04:07:55.829Z,6.10
2019-03-10T04:10:29.481Z,5.62
2019-03-10T04:13:01.015Z,6.55
2019-03-10T04:30:55.680Z,6.08
2019-03-10T04:33:40.382Z,6.85
2019-03-10T04:58:05.868Z,6.75
2019-03-10T05:00:43.195Z,7.70
2019-03-10T05:03:33.992Z,8.38
2019-03-10T05:06:12.928Z,6.47
2019-03-10T05:08:44.307Z,6.55
2019-03-10T05:11:16.284Z,7.35
2019-03-10T05:13:46.862Z,6.72
2019-03-10T05:16:17.043Z,6.12
2019-03-10T05:18:47.226Z,7.40
2019-03-10T05:21:16.893Z,6.50
2019-03-10T05:23:46.706Z,6.10
2019-03-10T05:26:16.231Z,6.83
2019-03-10T05:28:47.037Z,7.28
2019-03-10T05:31:17.628Z,7.30
2019-03-10T05:33:47.944Z,8.25
2019-03-10T05:36:17.609Z,6.78
2019-03-10T05:38:47.165Z,7.20
2019-03-10T05:41:18.522Z,6.50
2019-03-10T05:43:49.864Z,6.55
2019-03-10T05:46:21.917Z,6.47
2019-03-10T05:51:52.931Z,7.08
2019-03-10T05:54:25.218Z,6.70
2019-03-10T05:57:11.573Z,6.15
2019-03-10T06:06:28.880Z,8.05
2019-03-10T06:15:30.433Z,7.53
2019-03-10T06:18:16.037Z,7.03
2019-03-10T06:34:06.966Z,5.83
2019-03-10T06:37:12.382Z,5.62
2019-03-10T06:40:06.445Z,6.05
2019-03-10T06:51:35.873Z,6.62
2019-03-10T06:54:14.388Z,8.00
2019-03-10T07:02:43.362Z,7.58
2019-03-10T07:05:16.451Z,7.12
2019-03-10T07:07:53.748Z,7.22
2019-03-10T07:31:38.770Z,7.37
2019-03-10T07:47:04.433Z,8.40
2019-03-10T07:49:37.704Z,8.03
2019-03-10T07:55:11.465Z,6.67
2019-03-10T08:03:45.194Z,6.80
2019-03-10T08:06:26.113Z,6.95
2019-03-10T08:09:13.190Z,6.58
2019-03-10T08:15:04.444Z,7.80
2019-03-10T08:38:35.555Z,11.48
2019-03-10T08:44:25.955Z,9.83
2019-03-10T08:47:15.220Z,9.28
2019-03-10T08:59:17.354Z,11.18
2019-03-10T09:22:05.744Z,24.23
2019-03-10T09:24:59.680Z,22.02
2019-03-10T09:27:40.753Z,21.00
2019-03-10T09:43:13.257Z,20.52
2019-03-10T09:45:44.355Z,16.52
2019-03-10T09:48:32.416Z,14.28
2019-03-10T09:51:04.072Z,12.73
2019-03-10T09:53:51.487Z,10.68
2019-03-10T09:58:52.938Z,11.68
2019-03-10T10:01:26.757Z,9.65
2019-03-10T10:04:03.237Z,11.15
2019-03-10T10:06:36.837Z,9.98
2019-03-10T10:09:16.660Z,10.95
2019-03-10T10:11:53.785Z,10.08
2019-03-10T10:14:27.300Z,9.80
2019-03-10T10:17:01.094Z,9.38
2019-03-10T10:19:32.149Z,8.53
2019-03-10T10:22:19.768Z,8.88
2019-03-10T10:25:06.105Z,7.67
2019-03-10T11:48:42.800Z,7.97
2019-03-10T11:51:40.500Z,7.55
2019-03-10T11:54:11.647Z,6.92
2019-03-10T11:56:44.166Z,6.30
2019-03-10T11:59:28.263Z,5.85
2019-03-10T12:02:15.225Z,5.45
2019-03-10T12:04:46.327Z,5.47
2019-03-10T12:07:36.245Z,5.65
2019-03-10T12:10:15.928Z,4.90
2019-03-10T12:36:44.257Z,2.02
2019-03-10T12:45:42.805Z,2.00
2019-03-10T12:48:12.242Z,2.47
2019-03-10T12:50:41.988Z,2.15
2019-03-10T12:53:11.362Z,2.37
2019-03-10T12:55:40.836Z,2.67
2019-03-10T12:58:10.216Z,4.75
2019-03-10T13:00:39.785Z,3.77
2019-03-10T13:03:09.271Z,3.00
2019-03-10T13:05:38.595Z,2.62
2019-03-10T13:08:07.959Z,2.60
2019-03-10T13:10:37.465Z,3.40
2019-03-10T13:13:06.835Z,3.15
2019-03-10T13:15:36.603Z,3.67
2019-03-10T13:18:06.094Z,2.80
2019-03-10T13:20:35.480Z,3.15
2019-03-10T13:23:04.995Z,2.40
2019-03-10T13:25:36.117Z,2.92
2019-03-10T13:28:05.477Z,4.05
2019-03-10T13:30:34.933Z,3.25
2019-03-10T13:33:04.491Z,3.00
2019-03-10T13:35:35.455Z,2.75
2019-03-10T13:38:05.513Z,3.42
2019-03-10T13:40:35.058Z,2.35
2019-03-10T13:43:11.078Z,2.47
2019-03-10T13:45:42.140Z,2.98
2019-03-10T13:48:11.637Z,2.60
2019-03-10T13:50:41.189Z,2.40
2019-03-10T13:53:10.481Z,2.92
2019-03-10T13:55:39.845Z,2.60
2019-03-10T13:58:09.402Z,3.08
2019-03-10T14:00:38.853Z,2.60
2019-03-10T14:03:08.264Z,2.08
2019-03-10T14:05:37.654Z,1.42
2019-03-10T14:08:08.076Z,2.17
2019-03-10T14:10:37.471Z,1.10
2019-03-10T14:13:06.778Z,0.82
2019-03-10T14:15:36.102Z,1.07
2019-03-10T14:18:05.552Z,1.00
2019-03-10T14:20:35.063Z,0.93
2019-03-10T14:23:04.568Z,1.52
2019-03-10T14:25:33.960Z,1.07
2019-03-10T14:28:03.435Z,1.15
2019-03-10T14:30:33.013Z,1.27
2019-03-10T14:33:02.400Z,0.98
2019-03-10T14:35:32.376Z,1.15
2019-03-10T14:38:01.877Z,1.05
2019-03-10T14:40:31.388Z,0.80
2019-03-10T14:43:00.715Z,0.60
2019-03-10T14:45:30.051Z,0.88
2019-03-10T14:47:59.510Z,0.80
2019-03-10T14:50:28.820Z,1.07
2019-03-10T14:52:58.353Z,0.95
2019-03-10T14:55:27.767Z,0.50
2019-03-10T14:57:57.249Z,0.90
2019-03-10T15:00:29.172Z,0.93
2019-03-10T15:02:58.735Z,1.15
2019-03-10T15:05:28.112Z,0.80
2019-03-10T15:07:57.453Z,0.80
2019-03-10T15:10:26.957Z,0.82
2019-03-10T15:12:56.401Z,0.57
2019-03-10T15:15:25.810Z,0.57
2019-03-10T15:17:55.900Z,0.40
2019-03-10T15:20:26.864Z,0.45
2019-03-10T15:22:56.342Z,0.30
2019-03-10T15:25:26.918Z,0.20
2019-03-10T15:27:56.463Z,0.33
2019-03-10T15:30:27.075Z,0.40
2019-03-10T15:32:56.689Z,0.50
2019-03-10T15:35:26.202Z,0.60
2019-03-10T15:37:55.636Z,0.80
2019-03-10T15:40:25.081Z,0.80
2019-03-10T15:42:54.626Z,0.62
2019-03-10T15:45:24.093Z,0.90
2019-03-10T15:47:53.492Z,0.70
2019-03-10T15:50:30.093Z,0.78
2019-03-10T15:53:01.753Z,0.80
2019-03-10T15:55:31.290Z,1.17
2019-03-10T15:58:00.713Z,0.88
2019-03-10T16:00:30.205Z,1.30
2019-03-10T16:02:59.632Z,1.00
2019-03-10T16:05:29.082Z,1.37
2019-03-10T16:07:58.577Z,1.20
2019-03-10T16:10:27.968Z,1.67
2019-03-10T16:12:57.370Z,1.30
2019-03-10T16:15:31.079Z,0.85
2019-03-10T16:18:00.541Z,0.90
2019-03-10T16:20:29.967Z,1.00
2019-03-10T16:22:59.501Z,1.20
2019-03-10T16:25:29.365Z,1.30
2019-03-10T16:27:58.892Z,1.50
2019-03-10T16:30:29.435Z,1.90
2019-03-10T16:33:00.546Z,1.90
2019-03-10T16:35:29.966Z,1.70
2019-03-10T16:37:59.495Z,1.60
2019-03-10T16:40:28.900Z,2.05
2019-03-10T16:42:59.971Z,2.50
2019-03-10T16:45:31.426Z,1.57
2019-03-10T16:58:02.474Z,1.98
2019-03-10T17:06:55.982Z,1.87
2019-03-10T17:12:24.257Z,1.70
2019-03-10T17:17:56.419Z,1.32
2019-03-10T17:20:34.069Z,1.62
2019-03-10T17:29:38.285Z,1.72
2019-03-10T17:32:37.640Z,1.72
2019-03-10T17:38:35.340Z,1.45
2019-03-10T17:41:18.400Z,1.92
2019-03-10T18:07:51.628Z,1.90
2019-03-10T18:10:46.084Z,2.45
2019-03-10T18:13:46.470Z,2.00
2019-03-10T18:16:21.285Z,2.30
2019-03-10T18:19:07.252Z,2.40
2019-03-10T18:31:14.772Z,3.12
2019-03-10T18:33:44.293Z,2.15
2019-03-10T18:36:14.761Z,1.75
2019-03-10T18:38:45.042Z,2.27
2019-03-10T18:41:14.356Z,1.92
2019-03-10T18:43:44.000Z,1.50
2019-03-10T18:46:13.285Z,1.10
2019-03-10T18:48:42.730Z,1.15
2019-03-10T18:51:12.155Z,1.35
2019-03-10T18:53:41.533Z,1.00
2019-03-10T18:56:10.976Z,1.57
2019-03-10T18:58:40.412Z,0.95
2019-03-10T19:01:09.873Z,0.90
2019-03-10T19:03:39.252Z,1.27
2019-03-10T19:06:08.894Z,1.10
2019-03-10T19:08:38.295Z,0.90
2019-03-10T19:11:09.344Z,1.50
2019-03-10T19:13:38.942Z,1.17
2019-03-10T19:16:08.609Z,1.30
2019-03-10T19:18:40.395Z,1.17
2019-03-10T19:21:10.986Z,1.32
2019-03-10T19:23:41.720Z,1.55
2019-03-10T19:26:12.403Z,1.85
2019-03-10T19:28:42.903Z,2.12
2019-03-10T19:31:34.961Z,1.98
2019-03-10T19:34:12.769Z,1.70
2019-03-10T19:36:42.342Z,1.82
2019-03-10T19:45:48.062Z,2.50
2019-03-10T19:51:29.853Z,1.62
2019-03-10T19:57:01.666Z,2.40
2019-03-10T19:59:52.708Z,1.95
2019-03-10T20:02:50.903Z,2.02
2019-03-10T20:11:14.382Z,2.52
2019-03-10T20:38:47.011Z,3.10
2019-03-10T20:41:37.232Z,3.02
2019-03-10T20:44:20.237Z,2.77
2019-03-10T20:47:29.898Z,2.50
2019-03-10T20:56:18.355Z,3.33
2019-03-10T21:58:55.418Z,4.65
2019-03-10T22:11:19.906Z,2.55
2019-03-10T22:13:52.040Z,3.45
2019-03-10T22:16:33.856Z,3.08
2019-03-10T22:19:06.103Z,3.25
2019-03-10T22:30:40.215Z,2.60
2019-03-10T22:33:32.670Z,2.67
2019-03-10T22:36:08.852Z,2.30
2019-03-10T22:38:43.048Z,2.47
2019-03-10T22:41:12.696Z,2.22
2019-03-10T22:43:43.344Z,2.45
2019-03-10T22:46:17.995Z,3.10
2019-03-10T22:49:16.077Z,3.10
2019-03-10T22:57:56.483Z,2.37
2019-03-10T23:00:54.827Z,2.10
2019-03-10T23:09:47.247Z,1.92
2019-03-10T23:27:08.760Z,0.82
2019-03-10T23:29:58.570Z,1.07
2019-03-10T23:51:20.701Z,0.95
